Time;durP1;ratioP1;P1;durP2;ratioP2;P2;SDS_P1;SDS_P2;PMS_P1;PMS_P2;Temp;Humidity;BMP_temperature;BMP_pressure;BME280_temperature;BME280_humidity;BME280_pressure;Samples;Min_cycle;Max_cycle;Signal;HPM_P1;HPM_P2
2022/07/06 00:02:09;;;;;;;;;;;;;;;16.88;65.64;100326.50;6128282;23;1251;-95
2022/07/06 00:04:35;;;;;;;;;;;;;;;16.88;65.55;100334.66;6127944;23;1428;-95
2022/07/06 00:07:01;;;;;;;;;;;;;;;16.87;65.61;100329.50;6127916;23;1090;-95
2022/07/06 00:09:28;;;;;;;;;;;;;;;16.86;65.81;100334.13;6127645;23;1289;-95
2022/07/06 00:11:54;;;;;;;;;;;;;;;16.85;65.71;100345.25;6129038;23;1905;-95
2022/07/06 00:14:20;;;;;;;;;;;;;;;16.83;65.81;100334.66;6127614;23;1139;-95
2022/07/06 00:16:47;;;;;;;;;;;;;;;16.82;65.96;100337.63;6127972;23;1267;-95
2022/07/06 00:19:13;;;;;;;;;;;;;;;16.82;65.64;100341.16;6128112;23;1525;-96
2022/07/06 00:21:39;;;;;;;;;;;;;;;16.81;65.68;100339.53;6128025;23;1152;-95
2022/07/06 00:24:06;;;;;;;;;;;;;;;16.82;65.68;100343.88;6127198;23;1172;-96
2022/07/06 00:26:32;;;;;;;;;;;;;;;16.82;65.60;100343.06;6127454;23;1252;-95
2022/07/06 00:28:59;;;;;;;;;;;;;;;16.79;65.76;100344.41;6127715;23;1236;-96
2022/07/06 00:31:25;;;;;;;;;;;;;;;16.80;65.67;100340.63;6127567;23;1897;-95
2022/07/06 00:33:51;;;;;;;;;;;;;;;16.78;65.66;100343.59;6127166;23;1278;-95
2022/07/06 00:36:18;;;;;;;;;;;;;;;16.77;65.56;100341.97;6129487;23;915;-96
2022/07/06 00:38:44;;;;;;;;;;;;;;;16.74;65.56;100338.94;6127822;23;1368;-95
2022/07/06 00:41:11;;;;;;;;;;;;;;;16.73;65.63;100346.25;6128129;23;1217;-94
2022/07/06 00:43:39;;;;;;;;;;;;;;;16.73;65.67;100348.16;6102937;23;1499;-95
2022/07/06 00:46:05;;;;;;;;;;;;;;;16.74;65.63;100352.53;6127844;23;1378;-95
2022/07/06 00:48:31;;;;;;;;;;;;;;;16.72;65.57;100344.63;6127931;23;1296;-95
2022/07/06 00:50:58;;;;;;;;;;;;;;;16.73;65.51;100348.97;6127354;23;1937;-95
2022/07/06 00:53:24;;;;;;;;;;;;;;;16.73;65.51;100353.59;6127222;23;1282;-95
2022/07/06 00:55:50;;;;;;;;;;;;;;;16.71;65.74;100353.88;6127539;23;1274;-95
2022/07/06 00:58:17;;;;;;;;;;;;;;;16.71;65.59;100344.91;6127476;23;1160;-96
2022/07/06 01:00:44;;;;;;;;;;;;;;;16.69;65.58;100345.16;6127310;23;1471;-95
2022/07/06 01:03:10;;;;;;;;;;;;;;;16.68;65.47;100346.25;6127139;23;1200;-95
2022/07/06 01:05:37;;;;;;;;;;;;;;;16.67;65.52;100347.31;6127145;23;1117;-95
2022/07/06 01:08:03;;;;;;;;;;;;;;;16.66;65.63;100340.25;6127247;23;1106;-95
2022/07/06 01:10:30;;;;;;;;;;;;;;;16.66;65.62;100347.59;6127283;23;1873;-95
2022/07/06 01:12:56;;;;;;;;;;;;;;;16.63;65.49;100346.22;6127017;23;1169;-95
2022/07/06 01:15:23;;;;;;;;;;;;;;;16.62;65.57;100343.75;6127607;23;1311;-95
2022/07/06 01:17:49;;;;;;;;;;;;;;;16.62;65.46;100352.75;6127362;23;1425;-95
2022/07/06 01:20:15;;;;;;;;;;;;;;;16.60;65.45;100359.53;6128476;23;1086;-94
2022/07/06 01:22:42;;;;;;;;;;;;;;;16.60;65.52;100359.53;6127154;23;1270;-95
2022/07/06 01:25:08;;;;;;;;;;;;;;;16.59;65.70;100361.44;6127192;23;1211;-95
2022/07/06 01:27:37;;;;;;;;;;;;;;;16.57;65.34;100358.97;6128914;23;974;-95
2022/07/06 01:30:04;;;;;;;;;;;;;;;16.56;65.50;100357.34;6127776;23;1169;-95
2022/07/06 01:32:30;;;;;;;;;;;;;;;16.56;65.60;100348.38;6127380;23;1942;-95
2022/07/06 01:34:57;;;;;;;;;;;;;;;16.55;65.44;100354.88;6127585;23;1079;-95
2022/07/06 01:37:23;;;;;;;;;;;;;;;16.54;65.50;100351.34;6127002;23;1146;-95
2022/07/06 01:39:49;;;;;;;;;;;;;;;16.55;65.41;100352.97;6127940;23;1301;-96
2022/07/06 01:42:17;;;;;;;;;;;;;;;16.54;65.39;100351.34;6127399;23;1242;-95
2022/07/06 01:44:43;;;;;;;;;;;;;;;16.54;65.41;100356.78;6128158;23;1223;-95
2022/07/06 01:47:09;;;;;;;;;;;;;;;16.53;65.35;100357.03;6127149;23;1201;-95
2022/07/06 01:49:36;;;;;;;;;;;;;;;16.52;65.44;100363.56;6127144;23;1153;-95
2022/07/06 01:52:02;;;;;;;;;;;;;;;16.51;65.36;100356.50;6127147;23;1933;-95
2022/07/06 01:54:28;;;;;;;;;;;;;;;16.50;65.39;100363.84;6127075;23;1265;-96
2022/07/06 01:56:55;;;;;;;;;;;;;;;16.49;65.48;100354.03;6127233;23;1139;-95
2022/07/06 01:59:21;;;;;;;;;;;;;;;16.47;65.22;100367.09;6127062;23;1261;-95
2022/07/06 02:01:48;;;;;;;;;;;;;;;16.46;65.40;100360.00;6127864;23;1326;-95
2022/07/06 02:04:14;;;;;;;;;;;;;;;16.46;65.41;100364.63;6127149;23;1161;-95
2022/07/06 02:06:41;;;;;;;;;;;;;;;16.44;65.38;100369.50;6127457;23;1114;-95
2022/07/06 02:09:07;;;;;;;;;;;;;;;16.42;65.39;100371.69;6126921;23;1248;-95
2022/07/06 02:11:33;;;;;;;;;;;;;;;16.39;65.34;100370.28;6127101;23;1901;-95
2022/07/06 02:14:00;;;;;;;;;;;;;;;16.37;65.44;100375.16;6127071;23;1181;-95
2022/07/06 02:16:26;;;;;;;;;;;;;;;16.37;65.41;100380.59;6127510;23;1129;-96
2022/07/06 02:18:52;;;;;;;;;;;;;;;16.36;65.34;100378.97;6129276;23;1279;-95
2022/07/06 02:21:19;;;;;;;;;;;;;;;16.37;65.44;100375.16;6129193;23;1242;-95
2022/07/06 02:23:45;;;;;;;;;;;;;;;16.36;65.34;100384.41;6128601;23;1251;-95
2022/07/06 02:26:11;;;;;;;;;;;;;;;16.34;65.28;100389.28;6128477;23;1348;-95
2022/07/06 02:28:38;;;;;;;;;;;;;;;16.32;65.30;100392.28;6128839;23;1259;-95
2022/07/06 02:31:04;;;;;;;;;;;;;;;16.30;65.32;100391.72;6128639;23;1901;-95
2022/07/06 02:33:31;;;;;;;;;;;;;;;16.31;65.26;100398.78;6128420;23;1233;-95
2022/07/06 02:35:57;;;;;;;;;;;;;;;16.31;65.30;100400.69;6129071;23;1288;-94
2022/07/06 02:38:23;;;;;;;;;;;;;;;16.30;65.35;100401.75;6128921;23;1367;-95
2022/07/06 02:40:50;;;;;;;;;;;;;;;16.29;65.31;100397.38;6128567;23;1240;-95
2022/07/06 02:43:16;;;;;;;;;;;;;;;16.29;65.30;100398.19;6128823;23;1164;-95
2022/07/06 02:45:43;;;;;;;;;;;;;;;16.27;65.29;100399.56;6128645;23;1390;-95
2022/07/06 02:48:09;;;;;;;;;;;;;;;16.27;65.17;100402.28;6153418;23;1295;-95
2022/07/06 02:50:35;;;;;;;;;;;;;;;16.26;65.24;100403.34;6128852;23;1334;-94
2022/07/06 02:53:02;;;;;;;;;;;;;;;16.25;65.16;100399.81;6129395;23;1898;-95
2022/07/06 02:55:28;;;;;;;;;;;;;;;16.23;65.29;100409.31;6129790;23;1269;-95
2022/07/06 02:57:55;;;;;;;;;;;;;;;16.22;65.28;100413.94;6128842;23;1248;-95
2022/07/06 03:00:21;;;;;;;;;;;;;;;16.23;65.19;100406.59;6129297;23;1165;-95
2022/07/06 03:02:48;;;;;;;;;;;;;;;16.21;65.23;100412.31;6128464;23;1327;-95
2022/07/06 03:05:14;;;;;;;;;;;;;;;16.18;65.22;100414.69;6128468;23;1266;-94
2022/07/06 03:07:40;;;;;;;;;;;;;;;16.19;65.25;100410.91;6128713;23;1279;-94
2022/07/06 03:10:07;;;;;;;;;;;;;;;16.18;65.26;100406.53;6128354;23;1121;-94
2022/07/06 03:12:33;;;;;;;;;;;;;;;16.19;65.25;100413.63;6128039;23;1952;-94
2022/07/06 03:15:00;;;;;;;;;;;;;;;16.16;65.11;100406.00;6128577;23;1177;-94
2022/07/06 03:17:26;;;;;;;;;;;;;;;16.15;65.21;100401.63;6128998;23;1147;-95
2022/07/06 03:19:53;;;;;;;;;;;;;;;16.12;65.21;100411.97;6128100;23;1362;-96
2022/07/06 03:22:19;;;;;;;;;;;;;;;16.13;65.16;100408.16;6129576;23;1210;-95
2022/07/06 03:24:45;;;;;;;;;;;;;;;16.12;65.15;100405.72;6127815;23;1137;-95
2022/07/06 03:27:12;;;;;;;;;;;;;;;16.09;65.24;100401.63;6128321;23;1159;-95
2022/07/06 03:29:38;;;;;;;;;;;;;;;16.08;65.20;100399.97;6127681;23;1220;-95
2022/07/06 03:32:05;;;;;;;;;;;;;;;16.07;65.28;100402.94;6128265;23;1901;-95
2022/07/06 03:34:31;;;;;;;;;;;;;;;16.06;65.30;100407.56;6128451;23;1264;-95
2022/07/06 03:36:58;;;;;;;;;;;;;;;16.05;65.22;100408.63;6128512;23;1327;-94
2022/07/06 03:39:24;;;;;;;;;;;;;;;16.04;65.15;100408.91;6127911;23;1422;-95
2022/07/06 03:41:50;;;;;;;;;;;;;;;16.02;65.12;100413.75;6127979;23;1204;-95
2022/07/06 03:44:17;;;;;;;;;;;;;;;16.00;65.23;100408.59;6127875;23;1109;-94
2022/07/06 03:46:43;;;;;;;;;;;;;;;16.00;65.23;100413.19;6128369;23;1284;-95
2022/07/06 03:49:10;;;;;;;;;;;;;;;16.00;65.17;100410.47;6127988;23;1153;-94
2022/07/06 03:51:37;;;;;;;;;;;;;;;15.99;65.25;100412.38;6127967;23;1940;-94
2022/07/06 03:54:03;;;;;;;;;;;;;;;15.98;65.17;100410.75;6127590;23;1125;-95
2022/07/06 03:56:31;;;;;;;;;;;;;;;15.95;65.16;100411.28;6128444;23;1147;-94
2022/07/06 03:58:58;;;;;;;;;;;;;;;15.97;65.08;100413.72;6128283;23;1114;-94
2022/07/06 04:01:24;;;;;;;;;;;;;;;15.96;65.06;100414.81;6128324;23;1154;-94
2022/07/06 04:03:50;;;;;;;;;;;;;;;15.94;65.17;100415.03;6127607;23;1248;-94
2022/07/06 04:06:17;;;;;;;;;;;;;;;15.94;65.13;100419.66;6127840;23;1161;-94
2022/07/06 04:08:43;;;;;;;;;;;;;;;15.93;65.08;100421.56;6127779;23;1169;-94
2022/07/06 04:11:09;;;;;;;;;;;;;;;15.93;65.08;100421.56;6127875;23;1897;-94
2022/07/06 04:13:36;;;;;;;;;;;;;;;15.92;65.01;100425.38;6127901;23;1380;-94
2022/07/06 04:16:03;;;;;;;;;;;;;;;15.93;65.08;100424.28;6127982;23;1286;-94
2022/07/06 04:18:29;;;;;;;;;;;;;;;15.92;64.97;100422.66;6129389;23;833;-94
2022/07/06 04:20:57;;;;;;;;;;;;;;;15.92;64.97;100425.38;6129376;23;1128;-94
2022/07/06 04:23:23;;;;;;;;;;;;;;;15.91;64.93;100423.72;6127562;23;1174;-94
2022/07/06 04:25:49;;;;;;;;;;;;;;;15.90;64.80;100430.22;6127577;23;1242;-94
2022/07/06 04:28:16;;;;;;;;;;;;;;;15.92;64.88;100430.00;6127918;23;1254;-94
2022/07/06 04:30:42;;;;;;;;;;;;;;;15.90;64.80;100424.81;6127519;23;1245;-94
2022/07/06 04:33:08;;;;;;;;;;;;;;;15.89;64.82;100426.69;6127652;23;1909;-94
2022/07/06 04:35:35;;;;;;;;;;;;;;;15.89;64.79;100423.97;6128097;23;1404;-94
2022/07/06 04:38:01;;;;;;;;;;;;;;;15.90;64.80;100427.50;6127544;23;1245;-94
2022/07/06 04:40:27;;;;;;;;;;;;;;;15.88;64.79;100427.78;6127412;23;1157;-94
2022/07/06 04:42:54;;;;;;;;;;;;;;;15.87;64.69;100428.84;6127522;23;1138;-94
2022/07/06 04:45:20;;;;;;;;;;;;;;;15.87;64.76;100425.31;6127614;23;1356;-93
2022/07/06 04:47:47;;;;;;;;;;;;;;;15.87;64.79;100428.03;6128098;23;1240;-94
2022/07/06 04:50:13;;;;;;;;;;;;;;;15.85;64.66;100428.31;6127376;23;1149;-94
2022/07/06 04:52:40;;;;;;;;;;;;;;;15.86;64.73;100431.84;6127542;23;1952;-94
2022/07/06 04:55:08;;;;;;;;;;;;;;;15.85;64.70;100427.47;6127287;23;1291;-94
2022/07/06 04:57:35;;;;;;;;;;;;;;;15.85;64.77;100427.47;6127611;23;1168;-93
2022/07/06 05:00:01;;;;;;;;;;;;;;;15.84;64.63;100431.25;6126826;23;1320;-94
2022/07/06 05:02:27;;;;;;;;;;;;;;;15.83;64.64;100425.03;6126816;23;1200;-94
2022/07/06 05:04:53;;;;;;;;;;;;;;;15.83;64.64;100429.63;6126773;23;1300;-94
2022/07/06 05:07:20;;;;;;;;;;;;;;;15.83;64.65;100416.06;6127114;23;1242;-94
2022/07/06 05:09:46;;;;;;;;;;;;;;;15.81;64.51;100413.59;6127364;23;1262;-94
2022/07/06 05:12:13;;;;;;;;;;;;;;;15.81;64.56;100413.59;6127658;23;1937;-94
2022/07/06 05:14:39;;;;;;;;;;;;;;;15.81;64.58;100412.78;6127181;23;1138;-95
2022/07/06 05:17:05;;;;;;;;;;;;;;;15.80;64.53;100417.38;6127141;23;1201;-94
2022/07/06 05:19:32;;;;;;;;;;;;;;;15.81;64.38;100423.63;6127011;23;1278;-93
2022/07/06 05:21:58;;;;;;;;;;;;;;;15.80;64.50;100425.53;6126615;23;1344;-94
2022/07/06 05:24:24;;;;;;;;;;;;;;;15.79;64.47;100426.59;6126525;23;1165;-94
2022/07/06 05:26:51;;;;;;;;;;;;;;;15.79;64.31;100418.44;6126634;23;1292;-94
2022/07/06 05:29:17;;;;;;;;;;;;;;;15.79;64.40;100423.06;6128083;23;1402;-94
2022/07/06 05:31:43;;;;;;;;;;;;;;;15.80;64.38;100427.44;6128067;23;1946;-94
2022/07/06 05:34:10;;;;;;;;;;;;;;;15.80;64.30;100428.25;6127176;23;1243;-94
2022/07/06 05:36:36;;;;;;;;;;;;;;;15.79;64.41;100423.88;6127761;23;1237;-94
2022/07/06 05:39:02;;;;;;;;;;;;;;;15.78;64.24;100427.69;6128789;23;969;-94
2022/07/06 05:41:29;;;;;;;;;;;;;;;15.79;64.37;100423.06;6127520;23;1228;-94
2022/07/06 05:43:55;;;;;;;;;;;;;;;15.78;64.30;100424.16;6126915;23;1192;-94
2022/07/06 05:46:21;;;;;;;;;;;;;;;15.78;64.41;100430.41;6127481;23;1285;-94
2022/07/06 05:51:32;;;;;;;;;;;;;;;15.76;64.24;100424.38;6127479;23;1943;-94
2022/07/06 05:53:58;;;;;;;;;;;;;;;15.76;64.40;100421.69;6128667;23;1260;-94
2022/07/06 05:56:24;;;;;;;;;;;;;;;15.77;64.31;100430.66;6129061;23;1149;-93
2022/07/06 05:58:51;;;;;;;;;;;;;;;15.77;64.26;100419.81;6129063;23;1289;-94
2022/07/06 06:01:17;;;;;;;;;;;;;;;15.74;64.31;100420.31;6129403;23;1369;-94
2022/07/06 06:03:44;;;;;;;;;;;;;;;15.74;64.27;100414.91;6129118;23;1262;-94
2022/07/06 06:06:10;;;;;;;;;;;;;;;15.73;64.36;100426.81;6128909;23;1156;-94
2022/07/06 06:08:36;;;;;;;;;;;;;;;15.74;64.16;100431.19;6129318;23;1209;-94
2022/07/06 06:11:03;;;;;;;;;;;;;;;15.72;64.11;100431.41;6129002;23;1275;-94
2022/07/06 06:13:29;;;;;;;;;;;;;;;15.72;64.31;100427.91;6128998;23;1965;-94
2022/07/06 06:15:56;;;;;;;;;;;;;;;15.72;64.22;100423.28;6130002;23;1065;-94
2022/07/06 06:18:22;;;;;;;;;;;;;;;15.72;64.14;100431.41;6129147;23;1351;-93
2022/07/06 06:20:49;;;;;;;;;;;;;;;15.72;64.18;100428.72;6129055;23;1327;-93
2022/07/06 06:23:15;;;;;;;;;;;;;;;15.72;64.24;100431.41;6128717;23;1395;-94
2022/07/06 06:25:41;;;;;;;;;;;;;;;15.72;64.22;100436.84;6128752;23;1255;-94
2022/07/06 06:28:08;;;;;;;;;;;;;;;15.72;64.21;100433.31;6128716;23;1224;-94
2022/07/06 06:30:34;;;;;;;;;;;;;;;15.72;64.13;100442.28;6128566;23;1161;-94
2022/07/06 06:33:01;;;;;;;;;;;;;;;15.71;64.21;100437.94;6128602;23;1893;-94
2022/07/06 06:35:27;;;;;;;;;;;;;;;15.73;63.95;100440.38;6128689;23;1113;-93
2022/07/06 06:37:53;;;;;;;;;;;;;;;15.71;64.08;100434.41;6130664;23;784;-94
2022/07/06 06:40:20;;;;;;;;;;;;;;;15.70;64.16;100433.56;6129351;23;1232;-94
2022/07/06 06:42:46;;;;;;;;;;;;;;;15.70;64.01;100436.28;6129418;23;1125;-94
2022/07/06 06:45:12;;;;;;;;;;;;;;;15.69;64.24;100442.78;6129877;23;1225;-94
2022/07/06 06:47:39;;;;;;;;;;;;;;;15.70;64.02;100443.59;6129206;23;1228;-94
2022/07/06 06:50:05;;;;;;;;;;;;;;;15.70;64.01;100447.13;6128620;23;1117;-94
2022/07/06 06:52:31;;;;;;;;;;;;;;;15.70;64.15;100441.72;6128681;23;1897;-93
2022/07/06 06:54:58;;;;;;;;;;;;;;;15.70;63.96;100438.19;6128381;23;1223;-94
2022/07/06 06:57:24;;;;;;;;;;;;;;;15.69;64.00;100433.84;6128700;23;1134;-93
2022/07/06 06:59:51;;;;;;;;;;;;;;;15.69;63.91;100434.66;6128771;23;1295;-94
2022/07/06 07:02:17;;;;;;;;;;;;;;;15.70;64.01;100439.00;6128267;23;1286;-94
2022/07/06 07:04:44;;;;;;;;;;;;;;;15.70;63.96;100430.03;6127766;23;1142;-94
2022/07/06 07:07:10;;;;;;;;;;;;;;;15.69;63.79;100440.09;6128275;23;1131;-94
2022/07/06 07:09:36;;;;;;;;;;;;;;;15.69;64.01;100431.13;6129090;23;1235;-94
2022/07/06 07:12:03;;;;;;;;;;;;;;;15.69;63.91;100431.94;6128574;23;1882;-94
2022/07/06 07:14:29;;;;;;;;;;;;;;;15.70;63.77;100432.75;6128519;23;1265;-95
2022/07/06 07:16:55;;;;;;;;;;;;;;;15.69;63.75;100440.09;6128295;23;1106;-94
2022/07/06 07:19:22;;;;;;;;;;;;;;;15.70;63.74;100435.47;6128311;23;1257;-94
2022/07/06 07:21:48;;;;;;;;;;;;;;;15.69;63.86;100437.38;6128510;23;1153;-94
2022/07/06 07:24:14;;;;;;;;;;;;;;;15.70;63.84;100443.59;6127809;23;1133;-94
2022/07/06 07:26:40;;;;;;;;;;;;;;;15.68;63.89;100435.75;6128074;23;1292;-94
2022/07/06 07:29:07;;;;;;;;;;;;;;;15.69;63.67;100439.28;6128176;23;1263;-94
2022/07/06 07:31:33;;;;;;;;;;;;;;;15.70;63.63;100430.03;6128876;23;1153;-93
2022/07/06 07:33:59;;;;;;;;;;;;;;;15.71;63.72;100434.41;6128316;23;1909;-93
2022/07/06 07:36:26;;;;;;;;;;;;;;;15.70;63.75;100433.56;6128232;23;1132;-94
2022/07/06 07:38:52;;;;;;;;;;;;;;;15.70;63.79;100439.00;6128044;23;1260;-94
2022/07/06 07:41:18;;;;;;;;;;;;;;;15.70;63.86;100447.13;6127906;23;1158;-93
2022/07/06 07:43:45;;;;;;;;;;;;;;;15.70;63.67;100443.59;6129580;23;795;-94
2022/07/06 07:46:11;;;;;;;;;;;;;;;15.71;63.59;100447.97;6127953;23;1373;-94
2022/07/06 07:48:37;;;;;;;;;;;;;;;15.72;63.55;100442.28;6128267;23;1141;-94
2022/07/06 07:51:04;;;;;;;;;;;;;;;15.72;63.48;100445.00;6127840;23;1261;-93
2022/07/06 07:53:30;;;;;;;;;;;;;;;15.72;63.54;100449.63;6127781;23;1901;-94
2022/07/06 07:55:56;;;;;;;;;;;;;;;15.73;63.40;100452.06;6128257;23;1312;-94
2022/07/06 07:58:23;;;;;;;;;;;;;;;15.73;63.52;100445.81;6129339;23;1113;-93
2022/07/06 08:00:49;;;;;;;;;;;;;;;15.73;63.57;100443.91;6128029;23;1282;-94
2022/07/06 08:03:15;;;;;;;;;;;;;;;15.73;63.58;100437.66;6129162;23;840;-94
2022/07/06 08:05:42;;;;;;;;;;;;;;;15.73;63.50;100437.66;6128469;23;1551;-94
2022/07/06 08:08:08;;;;;;;;;;;;;;;15.74;63.28;100437.44;6152274;23;1093;-94
2022/07/06 08:10:34;;;;;;;;;;;;;;;15.74;63.47;100436.63;6129730;23;1119;-94
2022/07/06 08:13:01;;;;;;;;;;;;;;;15.73;63.50;100432.25;6127812;23;1950;-94
2022/07/06 08:15:27;;;;;;;;;;;;;;;15.74;63.36;100437.44;6127861;23;1447;-94
2022/07/06 08:17:53;;;;;;;;;;;;;;;15.76;63.24;100431.72;6127752;23;1167;-94
2022/07/06 08:20:20;;;;;;;;;;;;;;;15.75;63.49;100430.91;6127507;23;1145;-94
2022/07/06 08:22:46;;;;;;;;;;;;;;;15.76;63.33;100423.56;6128006;23;1271;-94
2022/07/06 08:25:13;;;;;;;;;;;;;;;15.76;63.43;100423.56;6127943;23;1353;-94
2022/07/06 08:27:40;;;;;;;;;;;;;;;15.75;63.34;100425.47;6127688;23;1157;-94
2022/07/06 08:30:07;;;;;;;;;;;;;;;15.76;63.38;100423.56;6129099;23;1069;-93
2022/07/06 08:32:33;;;;;;;;;;;;;;;15.77;63.42;100423.34;6127640;23;1901;-94
2022/07/06 08:34:59;;;;;;;;;;;;;;;15.77;63.24;100419.81;6127831;23;1189;-94
2022/07/06 08:37:26;;;;;;;;;;;;;;;15.77;63.29;100431.47;6127912;23;1196;-94
2022/07/06 08:39:52;;;;;;;;;;;;;;;15.77;63.34;100423.34;6128800;23;1089;-94
2022/07/06 08:42:18;;;;;;;;;;;;;;;15.78;63.35;100418.72;6127636;23;1249;-94
2022/07/06 08:44:45;;;;;;;;;;;;;;;15.79;63.40;100423.06;6127681;23;1442;-93
2022/07/06 08:47:11;;;;;;;;;;;;;;;15.79;63.55;100423.06;6127645;23;1121;-94
2022/07/06 08:49:38;;;;;;;;;;;;;;;15.79;63.44;100420.34;6127944;23;1186;-94
2022/07/06 08:52:04;;;;;;;;;;;;;;;15.79;63.40;100414.91;6128668;23;1208;-93
2022/07/06 08:54:30;;;;;;;;;;;;;;;15.80;63.36;100422.00;6127075;23;1940;-94
2022/07/06 08:56:57;;;;;;;;;;;;;;;15.80;63.51;100409.25;6127977;23;1129;-94
2022/07/06 08:59:23;;;;;;;;;;;;;;;15.79;63.36;100407.59;6127787;23;1283;-93
2022/07/06 09:01:49;;;;;;;;;;;;;;;15.80;63.48;100417.38;6127675;23;1196;-93
2022/07/06 09:04:16;;;;;;;;;;;;;;;15.81;63.10;100410.06;6127181;23;1343;-94
2022/07/06 09:06:42;;;;;;;;;;;;;;;15.81;62.88;100410.88;6127219;23;1145;-94
2022/07/06 09:09:09;;;;;;;;;;;;;;;15.82;62.98;100411.69;6127410;23;1247;-94
2022/07/06 09:11:37;;;;;;;;;;;;;;;15.82;63.36;100412.50;6127438;23;1169;-94
2022/07/06 09:14:03;;;;;;;;;;;;;;;15.81;63.04;100405.44;6127603;23;1948;-94
2022/07/06 09:16:30;;;;;;;;;;;;;;;15.83;62.72;100413.34;6127584;23;1252;-94
2022/07/06 09:18:56;;;;;;;;;;;;;;;15.83;63.14;100408.72;6127303;23;1145;-94
2022/07/06 09:21:23;;;;;;;;;;;;;;;15.85;63.39;100403.03;6127195;23;1157;-94
2022/07/06 09:23:49;;;;;;;;;;;;;;;15.84;63.07;100396.78;6127158;23;1286;-94
2022/07/06 09:26:15;;;;;;;;;;;;;;;15.84;63.13;100385.09;6128689;23;1095;-94
2022/07/06 09:28:42;;;;;;;;;;;;;;;15.84;62.83;100388.63;6129519;23;1443;-93
2022/07/06 09:31:08;;;;;;;;;;;;;;;15.85;63.15;100395.72;6129478;23;1225;-94
2022/07/06 09:33:34;;;;;;;;;;;;;;;15.85;62.99;100397.59;6129049;23;1904;-94
2022/07/06 09:36:02;;;;;;;;;;;;;;;15.87;62.96;100390.00;6129942;23;1149;-94
2022/07/06 09:38:28;;;;;;;;;;;;;;;15.87;62.87;100392.72;6129623;23;1185;-95
2022/07/06 09:40:54;;;;;;;;;;;;;;;15.88;63.00;100388.94;6130446;23;1253;-93
2022/07/06 09:43:21;;;;;;;;;;;;;;;15.89;63.56;100382.44;6129320;23;1168;-94
2022/07/06 09:45:48;;;;;;;;;;;;;;;15.88;63.33;100384.34;6128982;23;1373;-94
2022/07/06 09:48:14;;;;;;;;;;;;;;;15.88;62.94;100389.78;6128960;23;1153;-94
2022/07/06 09:50:41;;;;;;;;;;;;;;;15.89;63.39;100387.88;6129012;23;1145;-94
2022/07/06 09:53:07;;;;;;;;;;;;;;;15.91;63.46;100380.25;6129055;23;1909;-94
2022/07/06 09:55:33;;;;;;;;;;;;;;;15.92;63.21;100383.81;6128947;23;1259;-94
2022/07/06 09:58:00;;;;;;;;;;;;;;;15.90;63.16;100384.88;6130412;23;973;-94
2022/07/06 10:00:26;;;;;;;;;;;;;;;15.93;63.58;100380.81;6129399;23;1236;-94
2022/07/06 10:02:53;;;;;;;;;;;;;;;15.92;63.43;100383.81;6129340;23;1240;-94
2022/07/06 10:05:19;;;;;;;;;;;;;;;15.93;63.25;100380.00;6129163;23;1141;-93
2022/07/06 10:07:45;;;;;;;;;;;;;;;15.92;63.21;100373.78;6129949;23;1193;-94
2022/07/06 10:10:12;;;;;;;;;;;;;;;15.93;63.22;100371.88;6128797;23;1268;-94
2022/07/06 10:12:38;;;;;;;;;;;;;;;15.93;63.25;100366.44;6129198;23;1216;-94
2022/07/06 10:15:04;;;;;;;;;;;;;;;15.95;63.52;100367.00;6128693;23;2059;-94
2022/07/06 10:17:31;;;;;;;;;;;;;;;15.96;63.68;100361.28;6128865;23;1196;-94
2022/07/06 10:19:57;;;;;;;;;;;;;;;15.97;63.45;100356.69;6129021;23;1218;-94
2022/07/06 10:22:23;;;;;;;;;;;;;;;15.96;63.50;100355.88;6129121;23;1319;-95
2022/07/06 10:24:50;;;;;;;;;;;;;;;15.97;63.58;100353.97;6128925;23;1137;-94
2022/07/06 10:27:16;;;;;;;;;;;;;;;15.99;63.71;100354.53;6129305;23;1348;-94
2022/07/06 10:29:42;;;;;;;;;;;;;;;15.99;63.70;100354.53;6128952;23;1258;-94
2022/07/06 10:32:09;;;;;;;;;;;;;;;15.99;63.56;100347.19;6128798;23;1250;-94
2022/07/06 10:34:36;;;;;;;;;;;;;;;16.00;63.53;100359.72;6128810;23;1952;-94
2022/07/06 10:37:02;;;;;;;;;;;;;;;16.01;63.84;100361.34;6128994;23;1256;-93
2022/07/06 10:42:13;;;;;;;;;;;;;;;16.02;63.62;100359.44;6128876;23;1118;-94
2022/07/06 10:44:39;;;;;;;;;;;;;;;16.03;63.50;100358.34;6128740;23;1246;-95
2022/07/06 10:47:06;;;;;;;;;;;;;;;16.03;63.53;100361.06;6128971;23;1331;-94
2022/07/06 10:49:32;;;;;;;;;;;;;;;16.05;63.76;100359.72;6128944;23;1453;-94
2022/07/06 10:51:58;;;;;;;;;;;;;;;16.06;63.95;100360.53;6128577;23;1276;-94
2022/07/06 10:54:25;;;;;;;;;;;;;;;16.06;64.06;100357.81;6128454;23;1936;-95
2022/07/06 10:56:51;;;;;;;;;;;;;;;16.07;64.01;100354.06;6128440;23;1166;-94
2022/07/06 10:59:17;;;;;;;;;;;;;;;16.07;64.15;100341.28;6128919;23;1153;-94
2022/07/06 11:01:44;;;;;;;;;;;;;;;16.09;64.13;100338.31;6128712;23;1304;-94
2022/07/06 11:04:11;;;;;;;;;;;;;;;16.10;64.21;100345.38;6128318;23;1158;-95
2022/07/06 11:06:37;;;;;;;;;;;;;;;16.11;64.41;100342.38;6128773;23;1172;-94
2022/07/06 11:09:04;;;;;;;;;;;;;;;16.12;64.45;100338.59;6128736;23;1264;-94
2022/07/06 11:11:30;;;;;;;;;;;;;;;16.13;64.45;100328.56;6128389;23;1161;-94
2022/07/06 11:13:56;;;;;;;;;;;;;;;16.13;63.87;100329.38;6128625;23;1936;-95
2022/07/06 11:16:23;;;;;;;;;;;;;;;16.16;64.20;100327.22;6128676;23;1622;-94
2022/07/06 11:18:49;;;;;;;;;;;;;;;16.16;64.53;100325.31;6128462;23;1145;-94
2022/07/06 11:21:16;;;;;;;;;;;;;;;16.15;64.15;100314.69;6128132;23;1194;-94
2022/07/06 11:23:42;;;;;;;;;;;;;;;16.16;64.04;100316.34;6128278;23;1246;-94
2022/07/06 11:26:08;;;;;;;;;;;;;;;16.16;64.14;100311.72;6127967;23;1304;-94
2022/07/06 11:28:35;;;;;;;;;;;;;;;16.14;63.92;100303.00;6129301;23;1126;-94
2022/07/06 11:31:01;;;;;;;;;;;;;;;16.19;63.61;100304.97;6127952;23;1148;-94
2022/07/06 11:33:27;;;;;;;;;;;;;;;16.21;64.18;100297.38;6128226;23;1893;-94
2022/07/06 11:35:54;;;;;;;;;;;;;;;16.21;64.22;100292.75;6128463;23;1256;-96
2022/07/06 11:38:20;;;;;;;;;;;;;;;16.24;64.27;100286.78;6128309;23;1278;-94
2022/07/06 11:40:46;;;;;;;;;;;;;;;16.25;64.39;100285.69;6128069;23;1243;-94
2022/07/06 11:43:15;;;;;;;;;;;;;;;16.23;64.28;100284.31;6129151;23;1084;-94
2022/07/06 11:45:41;;;;;;;;;;;;;;;16.23;63.98;100285.13;6127841;23;1332;-94
2022/07/06 11:48:08;;;;;;;;;;;;;;;16.23;64.01;100276.16;6129617;23;823;-95
2022/07/06 11:50:34;;;;;;;;;;;;;;;16.26;64.04;100270.22;6127974;23;1286;-94
2022/07/06 11:53:01;;;;;;;;;;;;;;;16.26;64.39;100272.91;6128012;23;1161;-94
2022/07/06 11:55:27;;;;;;;;;;;;;;;16.26;64.02;100264.78;6127776;23;1956;-94
2022/07/06 11:57:56;;;;;;;;;;;;;;;16.27;63.74;100271.88;6129615;23;1080;-95
2022/07/06 12:00:22;;;;;;;;;;;;;;;16.31;64.11;100260.19;6129655;23;978;-96
2022/07/06 12:02:48;;;;;;;;;;;;;;;16.35;64.33;100263.19;6128111;23;1319;-93
2022/07/06 12:05:15;;;;;;;;;;;;;;;16.35;64.42;100260.47;6127767;23;1302;-96
2022/07/06 12:07:41;;;;;;;;;;;;;;;16.37;64.45;100250.16;6128524;23;1360;-94
2022/07/06 12:10:08;;;;;;;;;;;;;;;16.37;64.57;100243.91;6128367;23;1325;-94
2022/07/06 12:12:35;;;;;;;;;;;;;;;16.39;64.62;100253.44;6128119;23;1427;-96
2022/07/06 12:15:01;;;;;;;;;;;;;;;16.44;64.53;100263.50;6128050;23;1953;-96
2022/07/06 12:17:28;;;;;;;;;;;;;;;16.46;64.67;100253.19;6127995;23;1277;-95
2022/07/06 12:19:54;;;;;;;;;;;;;;;16.45;64.69;100249.66;6127699;23;1338;-95
2022/07/06 12:22:21;;;;;;;;;;;;;;;16.42;64.89;100242.03;6127578;23;1297;-94
2022/07/06 12:24:48;;;;;;;;;;;;;;;16.45;64.75;100238.78;6128242;23;1185;-95
2022/07/06 12:27:14;;;;;;;;;;;;;;;16.48;64.89;100230.09;6127976;23;1300;-95
2022/07/06 12:29:40;;;;;;;;;;;;;;;16.48;64.83;100221.94;6128229;23;1226;-96
2022/07/06 12:32:07;;;;;;;;;;;;;;;16.51;65.05;100231.47;6127868;23;1262;-95
2022/07/06 12:34:35;;;;;;;;;;;;;;;16.52;65.05;100225.75;6127885;23;1897;-95
2022/07/06 12:37:01;;;;;;;;;;;;;;;16.54;64.99;100211.91;6127619;23;1211;-96
2022/07/06 12:39:27;;;;;;;;;;;;;;;16.52;65.14;100204.00;6127460;23;1173;-94
2022/07/06 12:41:54;;;;;;;;;;;;;;;16.53;65.14;100205.66;6127634;23;1258;-94
2022/07/06 12:44:21;;;;;;;;;;;;;;;16.54;65.26;100209.19;6127867;23;1252;-96
2022/07/06 12:46:48;;;;;;;;;;;;;;;16.58;65.15;100202.13;6128505;23;1370;-96
2022/07/06 12:49:14;;;;;;;;;;;;;;;16.62;65.03;100199.66;6128706;23;1312;-96